Ditchingham, United Kingdom
Current Conditions -  °F | °C
As of 3:50 AM on Sunday 23 Nov 2014 (Local Time) from EGSH Reporting Station
Moderate Fog Moderate Fog  
Wind Chill: 54°   Ceiling: 100
Heat Index: 54°   Visibility: 0.06mi
Dew Point: 54°   Wind: 0mph
Humidity: 100%   Direction: NA
Pressure: 29.94"   Gusts: NA
Location:  52.47°N, 1.44°E
Report Text: EGSH 230350Z AUTO 00000KT 0100 FG OVC001/// 12/12 Q1014
Loading
Personal Weather Stations






























Interactive Weather Map New forecast layout! Learn more

10-Day Weather Forecast

Advertisements
Track Severe Weather on mobile